Time;durP1;ratioP1;P1;durP2;ratioP2;P2;SDS_P1;SDS_P2;PMS_P1;PMS_P2;Temp;Humidity;BMP_temperature;BMP_pressure;BME280_temperature;BME280_humidity;BME280_pressure;Samples;Min_cycle;Max_cycle;Signal;HPM_P1;HPM_P2
2022/07/10 00:01:57;;;;;;;7.78;0.55;;;;;;;;;;5324562;28;20384;-70
2022/07/10 00:04:28;;;;;;;2.93;0.50;;;;;;;;;;5324912;28;20043;-71
2022/07/10 00:07:01;;;;;;;4.33;0.70;;;;;;;;;;5325281;28;20265;-71
2022/07/10 00:09:33;;;;;;;2.83;0.40;;;;;;;;;;5324273;28;20602;-71
2022/07/10 00:12:05;;;;;;;4.28;0.95;;;;;;;;;;5325080;28;20034;-70
2022/07/10 00:14:36;;;;;;;2.53;0.70;;;;;;;;;;5324755;28;20023;-71
2022/07/10 00:17:07;;;;;;;5.40;0.50;;;;;;;;;;5323863;28;20527;-70
2022/07/10 00:19:38;;;;;;;5.47;0.53;;;;;;;;;;5324572;28;20794;-71
2022/07/10 00:22:09;;;;;;;3.03;0.40;;;;;;;;;;5324112;28;20725;-70
2022/07/10 00:24:40;;;;;;;1.60;0.47;;;;;;;;;;5324663;28;20372;-71
2022/07/10 00:27:12;;;;;;;3.65;0.40;;;;;;;;;;5324556;28;20273;-72
2022/07/10 00:29:43;;;;;;;4.97;0.90;;;;;;;;;;5323951;28;20016;-71
2022/07/10 00:32:14;;;;;;;4.32;0.47;;;;;;;;;;5324418;28;20270;-69
2022/07/10 00:34:45;;;;;;;5.32;0.50;;;;;;;;;;5324493;28;20099;-72
2022/07/10 00:37:17;;;;;;;5.53;0.50;;;;;;;;;;5323503;28;20489;-70
2022/07/10 00:39:48;;;;;;;6.60;0.60;;;;;;;;;;5324289;28;20609;-70
2022/07/10 00:42:19;;;;;;;4.18;0.60;;;;;;;;;;5324067;27;20024;-70
2022/07/10 00:44:51;;;;;;;6.63;0.50;;;;;;;;;;5323802;28;20019;-71
2022/07/10 00:47:22;;;;;;;3.58;0.52;;;;;;;;;;5323753;28;20038;-70
2022/07/10 00:49:53;;;;;;;5.07;0.60;;;;;;;;;;5324242;28;20382;-71
2022/07/10 00:52:24;;;;;;;5.77;0.90;;;;;;;;;;5322901;28;20379;-70
2022/07/10 00:54:56;;;;;;;4.88;0.63;;;;;;;;;;5324209;28;20265;-69
2022/07/10 00:57:27;;;;;;;4.05;0.60;;;;;;;;;;5323073;28;20558;-70
2022/07/10 00:59:58;;;;;;;4.25;0.60;;;;;;;;;;5323232;28;20024;-70
2022/07/10 01:02:30;;;;;;;3.58;0.60;;;;;;;;;;5323461;28;20516;-70
2022/07/10 01:05:01;;;;;;;2.35;0.80;;;;;;;;;;5323216;28;20437;-70
2022/07/10 01:07:32;;;;;;;4.45;0.50;;;;;;;;;;5323977;28;20027;-70
2022/07/10 01:10:03;;;;;;;1.70;0.45;;;;;;;;;;5323998;28;20015;-70
2022/07/10 01:12:36;;;;;;;4.93;0.50;;;;;;;;;;5323047;28;20276;-70
2022/07/10 01:15:07;;;;;;;5.03;0.60;;;;;;;;;;5323611;28;20069;-70
2022/07/10 01:17:38;;;;;;;6.30;0.98;;;;;;;;;;5323839;28;20064;-70
2022/07/10 01:20:10;;;;;;;5.13;1.10;;;;;;;;;;5322634;28;20057;-69
2022/07/10 01:22:41;;;;;;;3.67;0.50;;;;;;;;;;5323586;28;20315;-69
2022/07/10 01:25:12;;;;;;;4.22;0.60;;;;;;;;;;5323201;28;20011;-70
2022/07/10 01:27:43;;;;;;;5.38;0.75;;;;;;;;;;5323079;28;20023;-69
2022/07/10 01:30:15;;;;;;;3.83;0.70;;;;;;;;;;5323598;28;20043;-69
2022/07/10 01:32:46;;;;;;;5.43;0.73;;;;;;;;;;5322732;28;20289;-69
2022/07/10 01:35:17;;;;;;;4.03;0.90;;;;;;;;;;5323360;28;20269;-70
2022/07/10 01:37:49;;;;;;;2.97;0.50;;;;;;;;;;5323292;28;20016;-70
2022/07/10 01:40:20;;;;;;;5.95;0.60;;;;;;;;;;5322473;28;20035;-70
2022/07/10 01:42:51;;;;;;;5.05;0.60;;;;;;;;;;5323825;28;20008;-70
2022/07/10 01:45:22;;;;;;;2.20;0.60;;;;;;;;;;5323037;28;20257;-70
2022/07/10 01:47:53;;;;;;;3.85;0.70;;;;;;;;;;5322895;28;20260;-69
2022/07/10 01:50:26;;;;;;;8.60;1.25;;;;;;;;;;5322841;28;20016;-70
2022/07/10 01:52:57;;;;;;;11.35;0.80;;;;;;;;;;5323362;28;20037;-70
2022/07/10 01:55:28;;;;;;;4.45;1.00;;;;;;;;;;5322453;28;20475;-69
2022/07/10 01:58:00;;;;;;;5.00;0.70;;;;;;;;;;5323266;28;20041;-69
2022/07/10 02:00:31;;;;;;;2.30;0.52;;;;;;;;;;5322270;28;20038;-69
2022/07/10 02:05:52;;;;;;;3.90;0.55;;;;;;;;;;5323777;28;20429;-69
2022/07/10 02:08:23;;;;;;;5.60;0.95;;;;;;;;;;5322008;28;20015;-71
2022/07/10 02:10:54;;;;;;;5.65;0.80;;;;;;;;;;5323474;28;20303;-69
2022/07/10 02:13:27;;;;;;;5.93;0.98;;;;;;;;;;5327496;28;20020;-69
2022/07/10 02:15:58;;;;;;;6.85;0.70;;;;;;;;;;5326967;28;20262;-70
2022/07/10 02:18:30;;;;;;;11.43;0.98;;;;;;;;;;5327114;28;20012;-70
2022/07/10 02:21:02;;;;;;;5.57;1.10;;;;;;;;;;5326972;28;20050;-71
2022/07/10 02:23:33;;;;;;;4.75;0.70;;;;;;;;;;5326241;27;20026;-70
2022/07/10 02:26:05;;;;;;;5.00;0.60;;;;;;;;;;5327260;28;20032;-70
2022/07/10 02:28:36;;;;;;;4.93;0.70;;;;;;;;;;5326444;28;20050;-70
2022/07/10 02:31:07;;;;;;;5.63;0.70;;;;;;;;;;5326969;28;20253;-70
2022/07/10 02:33:38;;;;;;;6.20;0.80;;;;;;;;;;5326943;28;20061;-70
2022/07/10 02:36:09;;;;;;;2.78;0.60;;;;;;;;;;5325967;28;20296;-70
2022/07/10 02:38:41;;;;;;;5.05;1.08;;;;;;;;;;5326731;28;20073;-70
2022/07/10 02:41:12;;;;;;;4.72;0.80;;;;;;;;;;5326693;28;20387;-69
2022/07/10 02:43:43;;;;;;;5.90;0.70;;;;;;;;;;5325960;28;20090;-70
2022/07/10 02:46:14;;;;;;;5.32;0.75;;;;;;;;;;5326573;28;20076;-69
2022/07/10 02:48:45;;;;;;;7.23;0.70;;;;;;;;;;5326390;28;20028;-70
2022/07/10 02:51:17;;;;;;;4.78;0.80;;;;;;;;;;5325906;28;20360;-70
2022/07/10 02:53:48;;;;;;;4.78;0.70;;;;;;;;;;5326426;28;20253;-70
2022/07/10 02:56:19;;;;;;;4.80;0.95;;;;;;;;;;5326245;28;20459;-70
2022/07/10 02:58:50;;;;;;;3.88;0.80;;;;;;;;;;5325930;28;20080;-70
2022/07/10 03:01:21;;;;;;;6.65;1.10;;;;;;;;;;5325897;28;20031;-70
2022/07/10 03:03:52;;;;;;;4.05;0.75;;;;;;;;;;5325858;28;20265;-70
2022/07/10 03:06:23;;;;;;;8.15;1.05;;;;;;;;;;5325961;28;20273;-70
2022/07/10 03:08:55;;;;;;;5.30;0.70;;;;;;;;;;5326457;28;20254;-70
2022/07/10 03:11:26;;;;;;;6.00;1.45;;;;;;;;;;5324945;28;20349;-70
2022/07/10 03:13:57;;;;;;;5.43;0.87;;;;;;;;;;5326530;28;20277;-70
2022/07/10 03:16:28;;;;;;;6.15;0.90;;;;;;;;;;5325930;28;20357;-70
2022/07/10 03:18:59;;;;;;;4.50;0.85;;;;;;;;;;5325173;28;20254;-70
2022/07/10 03:21:30;;;;;;;2.70;0.70;;;;;;;;;;5325705;28;20313;-70
2022/07/10 03:24:02;;;;;;;5.88;1.08;;;;;;;;;;5324693;27;20258;-70
2022/07/10 03:26:34;;;;;;;7.47;0.90;;;;;;;;;;5325037;28;20054;-70
2022/07/10 03:29:05;;;;;;;5.78;1.20;;;;;;;;;;5325794;28;20090;-70
2022/07/10 03:31:37;;;;;;;4.68;0.98;;;;;;;;;;5325706;28;20026;-70
2022/07/10 03:34:08;;;;;;;9.05;1.23;;;;;;;;;;5324676;28;20273;-70
2022/07/10 03:36:39;;;;;;;9.32;0.95;;;;;;;;;;5325561;28;20110;-70
2022/07/10 03:39:10;;;;;;;5.78;1.05;;;;;;;;;;5324896;28;20624;-70
2022/07/10 03:41:41;;;;;;;4.30;0.85;;;;;;;;;;5325643;28;20031;-70
2022/07/10 03:44:12;;;;;;;3.38;0.98;;;;;;;;;;5325373;28;20353;-70
2022/07/10 03:46:44;;;;;;;3.95;1.05;;;;;;;;;;5324474;28;20019;-71
2022/07/10 03:49:15;;;;;;;6.72;0.80;;;;;;;;;;5325151;28;20323;-70
2022/07/10 03:51:46;;;;;;;5.93;0.90;;;;;;;;;;5325374;28;20022;-70
2022/07/10 03:54:17;;;;;;;3.30;1.00;;;;;;;;;;5324384;28;20012;-70
2022/07/10 03:59:38;;;;;;;5.72;1.33;;;;;;;;;;5325384;28;20344;-70
2022/07/10 04:02:09;;;;;;;3.53;0.95;;;;;;;;;;5324485;28;20541;-70
2022/07/10 04:04:40;;;;;;;2.13;0.82;;;;;;;;;;5325174;28;20020;-70
2022/07/10 04:07:12;;;;;;;6.85;1.15;;;;;;;;;;5324219;28;20011;-70
2022/07/10 04:09:43;;;;;;;4.10;0.70;;;;;;;;;;5324788;28;20370;-70
2022/07/10 04:12:14;;;;;;;6.47;0.80;;;;;;;;;;5325179;28;20023;-71
2022/07/10 04:14:48;;;;;;;6.80;1.25;;;;;;;;;;5324070;28;20348;-70
2022/07/10 04:17:19;;;;;;;4.82;0.80;;;;;;;;;;5324303;28;20732;-70
2022/07/10 04:19:50;;;;;;;4.43;1.10;;;;;;;;;;5324824;28;20482;-70
2022/07/10 04:22:21;;;;;;;7.22;1.35;;;;;;;;;;5323393;28;20036;-70
2022/07/10 04:24:55;;;;;;;5.85;1.00;;;;;;;;;;5325078;28;20035;-70
2022/07/10 04:27:27;;;;;;;5.70;1.23;;;;;;;;;;5324361;28;20019;-70
2022/07/10 04:29:58;;;;;;;5.03;1.25;;;;;;;;;;5324131;28;20031;-70
2022/07/10 04:32:29;;;;;;;6.05;1.27;;;;;;;;;;5324067;28;20030;-70
2022/07/10 04:35:01;;;;;;;4.28;1.00;;;;;;;;;;5324076;28;20451;-70
2022/07/10 04:37:34;;;;;;;5.80;1.23;;;;;;;;;;5323468;28;20741;-70
2022/07/10 04:40:05;;;;;;;3.75;0.80;;;;;;;;;;5324148;28;20102;-70
2022/07/10 04:42:37;;;;;;;8.20;1.15;;;;;;;;;;5323498;28;20526;-70
2022/07/10 04:45:08;;;;;;;4.15;1.15;;;;;;;;;;5324009;28;20081;-71
2022/07/10 04:47:39;;;;;;;5.30;0.70;;;;;;;;;;5324054;28;20538;-70
2022/07/10 04:50:10;;;;;;;5.82;1.00;;;;;;;;;;5323380;28;20060;-70
2022/07/10 04:52:41;;;;;;;4.35;1.08;;;;;;;;;;5324076;28;20058;-70
2022/07/10 04:55:13;;;;;;;4.80;0.90;;;;;;;;;;5323984;28;20257;-70
2022/07/10 04:57:44;;;;;;;3.90;0.93;;;;;;;;;;5323208;28;20015;-70
2022/07/10 05:00:15;;;;;;;6.78;1.30;;;;;;;;;;5323941;28;20024;-71
2022/07/10 05:02:46;;;;;;;3.08;0.80;;;;;;;;;;5324065;28;20012;-70
2022/07/10 05:05:17;;;;;;;4.68;1.00;;;;;;;;;;5323217;28;20027;-70
2022/07/10 05:07:49;;;;;;;5.20;0.80;;;;;;;;;;5323964;28;20088;-70
2022/07/10 05:10:20;;;;;;;7.60;1.13;;;;;;;;;;5322657;28;20270;-71
2022/07/10 05:12:51;;;;;;;4.68;0.68;;;;;;;;;;5324047;28;20019;-70
2022/07/10 05:15:22;;;;;;;7.93;1.00;;;;;;;;;;5323195;28;20377;-70
2022/07/10 05:17:53;;;;;;;6.20;0.90;;;;;;;;;;5323245;28;20782;-70
2022/07/10 05:20:24;;;;;;;3.67;0.80;;;;;;;;;;5323065;28;20067;-70
2022/07/10 05:22:56;;;;;;;4.77;0.87;;;;;;;;;;5323743;28;20307;-71
2022/07/10 05:25:30;;;;;;;4.13;0.70;;;;;;;;;;5322262;28;20277;-70
2022/07/10 05:28:01;;;;;;;4.93;0.65;;;;;;;;;;5323450;28;20016;-71
2022/07/10 05:30:32;;;;;;;5.47;1.10;;;;;;;;;;5323403;28;20471;-70
2022/07/10 05:33:03;;;;;;;3.63;0.75;;;;;;;;;;5322622;28;20665;-70
2022/07/10 05:35:35;;;;;;;4.07;0.70;;;;;;;;;;5323630;28;20020;-70
2022/07/10 05:38:06;;;;;;;5.78;1.05;;;;;;;;;;5323478;28;20260;-70
2022/07/10 05:40:37;;;;;;;4.60;1.00;;;;;;;;;;5322487;28;20312;-70
2022/07/10 05:43:09;;;;;;;5.90;0.55;;;;;;;;;;5323417;28;20027;-70
2022/07/10 05:45:41;;;;;;;5.45;0.68;;;;;;;;;;5321943;28;20444;-70
2022/07/10 05:48:12;;;;;;;8.48;0.50;;;;;;;;;;5323532;28;20019;-70
2022/07/10 05:50:43;;;;;;;7.15;0.55;;;;;;;;;;5323486;28;20356;-70
2022/07/10 05:53:15;;;;;;;8.88;1.05;;;;;;;;;;5322613;28;20361;-70
2022/07/10 05:55:46;;;;;;;3.42;0.40;;;;;;;;;;5323425;28;20261;-70
2022/07/10 05:58:18;;;;;;;2.55;0.50;;;;;;;;;;5323208;28;20035;-70
2022/07/10 06:00:50;;;;;;;6.72;0.90;;;;;;;;;;5322565;28;20119;-71
2022/07/10 06:03:21;;;;;;;5.28;0.45;;;;;;;;;;5322835;28;20011;-71
2022/07/10 06:05:52;;;;;;;4.50;0.77;;;;;;;;;;5323316;28;20089;-70
2022/07/10 06:08:23;;;;;;;7.60;0.65;;;;;;;;;;5321931;28;20276;-70
2022/07/10 06:10:55;;;;;;;4.75;0.60;;;;;;;;;;5323652;28;20272;-70
2022/07/10 06:13:26;;;;;;;6.10;0.50;;;;;;;;;;5322706;28;20261;-70
2022/07/10 06:15:57;;;;;;;6.30;0.40;;;;;;;;;;5322838;28;20425;-70
2022/07/10 06:18:28;;;;;;;7.32;0.80;;;;;;;;;;5322625;28;20020;-70
2022/07/10 06:20:59;;;;;;;4.00;0.90;;;;;;;;;;5322007;28;20535;-70
2022/07/10 06:23:31;;;;;;;4.32;0.40;;;;;;;;;;5322901;28;20269;-69
2022/07/10 06:26:02;;;;;;;6.40;0.52;;;;;;;;;;5323154;28;20027;-70
2022/07/10 06:28:36;;;;;;;4.53;0.60;;;;;;;;;;5322080;28;20361;-69
2022/07/10 06:31:07;;;;;;;8.20;0.90;;;;;;;;;;5322807;28;20019;-70
2022/07/10 06:33:39;;;;;;;5.47;0.60;;;;;;;;;;5322744;28;20478;-69
2022/07/10 06:36:12;;;;;;;4.97;0.85;;;;;;;;;;5322182;28;20302;-70
2022/07/10 06:38:43;;;;;;;7.07;0.60;;;;;;;;;;5322894;28;20023;-70
2022/07/10 06:41:14;;;;;;;5.75;0.65;;;;;;;;;;5322714;28;20110;-69
2022/07/10 06:43:45;;;;;;;3.80;0.70;;;;;;;;;;5321994;28;20201;-70
2022/07/10 06:46:16;;;;;;;7.70;0.63;;;;;;;;;;5322727;28;20278;-69
2022/07/10 06:48:48;;;;;;;5.73;0.50;;;;;;;;;;5322109;28;20616;-70
2022/07/10 06:51:19;;;;;;;4.95;1.10;;;;;;;;;;5322468;28;20391;-70
2022/07/10 06:53:50;;;;;;;5.47;0.50;;;;;;;;;;5323030;28;20012;-70
2022/07/10 06:56:21;;;;;;;10.32;0.70;;;;;;;;;;5321436;28;20348;-70
2022/07/10 06:58:53;;;;;;;7.60;0.47;;;;;;;;;;5324633;28;20027;-70
2022/07/10 07:01:24;;;;;;;6.00;0.60;;;;;;;;;;5326054;28;20027;-69
2022/07/10 07:03:55;;;;;;;8.00;0.80;;;;;;;;;;5325741;28;20291;-69
2022/07/10 07:06:26;;;;;;;5.90;0.82;;;;;;;;;;5326042;28;20271;-70
2022/07/10 07:08:57;;;;;;;3.58;0.40;;;;;;;;;;5326414;28;20261;-69
2022/07/10 07:11:28;;;;;;;10.77;1.20;;;;;;;;;;5325302;28;20290;-70
2022/07/10 07:13:59;;;;;;;4.82;0.73;;;;;;;;;;5326548;28;20022;-69
2022/07/10 07:16:45;;;;;;;6.45;0.60;;;;;;;;;;5326244;28;20314;-71
2022/07/10 07:19:30;;;;;;;6.75;0.50;;;;;;;;;;5325030;28;20273;-70
2022/07/10 07:24:51;;;;;;;5.85;0.60;;;;;;;;;;5325676;28;20102;-68
2022/07/10 07:27:22;;;;;;;8.38;1.02;;;;;;;;;;5325602;28;20106;-69
2022/07/10 07:29:53;;;;;;;5.55;0.82;;;;;;;;;;5326190;28;20016;-68
2022/07/10 07:32:24;;;;;;;7.87;0.60;;;;;;;;;;5324587;28;20289;-69
2022/07/10 07:34:56;;;;;;;7.32;0.65;;;;;;;;;;5325763;28;20261;-68
2022/07/10 07:37:40;;;;;;;6.72;0.40;;;;;;;;;;5325206;28;20268;-68
2022/07/10 07:40:12;;;;;;;6.97;0.50;;;;;;;;;;5324625;28;20027;-69
2022/07/10 07:42:44;;;;;;;5.72;0.50;;;;;;;;;;5325670;28;20094;-69
2022/07/10 07:45:15;;;;;;;7.50;0.68;;;;;;;;;;5324873;28;20099;-68
2022/07/10 07:47:48;;;;;;;5.95;0.60;;;;;;;;;;5325243;28;20019;-68
2022/07/10 07:50:21;;;;;;;7.45;0.60;;;;;;;;;;5325171;28;20023;-69
2022/07/10 07:52:53;;;;;;;7.43;0.80;;;;;;;;;;5324750;28;20024;-68
2022/07/10 07:55:24;;;;;;;7.75;0.88;;;;;;;;;;5325188;28;20473;-68
2022/07/10 07:57:56;;;;;;;7.43;0.57;;;;;;;;;;5325621;28;20022;-68
2022/07/10 08:00:27;;;;;;;4.50;0.98;;;;;;;;;;5324004;28;20036;-68
2022/07/10 08:03:00;;;;;;;10.65;1.35;;;;;;;;;;5325354;28;20035;-67
2022/07/10 08:05:31;;;;;;;9.40;1.10;;;;;;;;;;5325119;28;20477;-68
2022/07/10 08:08:08;;;;;;;6.47;1.25;;;;;;;;;;5320706;28;20019;-68
2022/07/10 08:10:39;;;;;;;7.18;0.82;;;;;;;;;;5324355;28;20047;-69
2022/07/10 08:13:11;;;;;;;7.38;0.90;;;;;;;;;;5325053;28;20042;-69
2022/07/10 08:15:42;;;;;;;6.18;0.90;;;;;;;;;;5323648;28;20024;-69
2022/07/10 08:18:14;;;;;;;9.32;1.27;;;;;;;;;;5324402;28;20090;-69
2022/07/10 08:20:45;;;;;;;11.60;1.50;;;;;;;;;;5323342;27;20538;-68
2022/07/10 08:23:16;;;;;;;7.50;1.10;;;;;;;;;;5324642;28;20012;-69
2022/07/10 08:25:47;;;;;;;5.37;1.00;;;;;;;;;;5324051;28;20261;-69
2022/07/10 08:28:19;;;;;;;11.43;1.20;;;;;;;;;;5323147;28;20276;-70
2022/07/10 08:30:50;;;;;;;10.90;1.47;;;;;;;;;;5324763;28;20277;-70
2022/07/10 08:33:21;;;;;;;6.47;0.80;;;;;;;;;;5324343;28;20352;-70
2022/07/10 08:35:53;;;;;;;6.78;0.95;;;;;;;;;;5324035;28;20270;-70
2022/07/10 08:38:24;;;;;;;8.93;0.70;;;;;;;;;;5324030;28;20011;-70
2022/07/10 08:40:59;;;;;;;7.03;0.77;;;;;;;;;;5324601;28;20062;-70
2022/07/10 08:43:30;;;;;;;6.50;0.88;;;;;;;;;;5323795;28;20016;-71
2022/07/10 08:46:01;;;;;;;3.83;0.50;;;;;;;;;;5324197;28;20034;-71
2022/07/10 08:48:33;;;;;;;8.35;1.05;;;;;;;;;;5323315;28;20028;-69
2022/07/10 08:51:06;;;;;;;7.47;1.15;;;;;;;;;;5324161;28;20411;-70
2022/07/10 08:53:38;;;;;;;5.65;0.75;;;;;;;;;;5324395;28;20027;-70
2022/07/10 08:56:10;;;;;;;4.20;0.68;;;;;;;;;;5323497;27;20371;-70
2022/07/10 08:58:42;;;;;;;5.80;1.13;;;;;;;;;;5324106;28;20066;-70
2022/07/10 09:01:13;;;;;;;3.80;0.63;;;;;;;;;;5323763;28;20342;-70
2022/07/10 09:03:44;;;;;;;5.03;0.85;;;;;;;;;;5323048;28;20016;-70
2022/07/10 09:06:16;;;;;;;10.27;0.88;;;;;;;;;;5323876;28;20020;-70
2022/07/10 09:09:00;;;;;;;6.93;1.00;;;;;;;;;;5323790;28;20393;-69
2022/07/10 09:11:33;;;;;;;6.25;0.70;;;;;;;;;;5322924;28;20023;-69
2022/07/10 09:14:07;;;;;;;6.63;0.80;;;;;;;;;;5323678;27;20040;-70
2022/07/10 09:16:42;;;;;;;6.20;0.93;;;;;;;;;;5322573;28;20027;-70
2022/07/10 09:19:22;;;;;;;9.43;0.93;;;;;;;;;;5323577;28;20405;-71
2022/07/10 09:22:03;;;;;;;4.47;0.60;;;;;;;;;;5322115;28;20076;-71
2022/07/10 09:24:44;;;;;;;4.38;0.60;;;;;;;;;;5321382;28;20022;-71
2022/07/10 09:27:15;;;;;;;6.72;0.52;;;;;;;;;;5323374;28;20027;-71
2022/07/10 09:29:56;;;;;;;4.13;0.70;;;;;;;;;;5323385;28;20016;-71
2022/07/10 09:32:28;;;;;;;5.72;0.90;;;;;;;;;;5322588;28;20024;-71
2022/07/10 09:37:48;;;;;;;3.88;0.55;;;;;;;;;;5322893;28;20436;-71
2022/07/10 09:40:19;;;;;;;3.67;0.70;;;;;;;;;;5323127;28;20023;-71
2022/07/10 09:42:52;;;;;;;3.73;0.73;;;;;;;;;;5323699;28;20024;-71
2022/07/10 09:45:24;;;;;;;2.75;0.50;;;;;;;;;;5322236;28;20282;-72
2022/07/10 09:47:56;;;;;;;4.28;0.60;;;;;;;;;;5323620;28;20072;-71
2022/07/10 09:50:34;;;;;;;4.32;0.70;;;;;;;;;;5323293;28;20470;-71
2022/07/10 09:53:07;;;;;;;4.32;0.50;;;;;;;;;;5322761;28;20022;-71
2022/07/10 09:55:38;;;;;;;4.68;0.70;;;;;;;;;;5323326;28;20478;-71
2022/07/10 09:58:09;;;;;;;2.83;0.50;;;;;;;;;;5323452;28;20114;-71
2022/07/10 10:00:40;;;;;;;6.50;0.70;;;;;;;;;;5322263;28;20031;-71
2022/07/10 10:03:14;;;;;;;2.95;0.80;;;;;;;;;;5323156;28;20624;-71
2022/07/10 10:05:55;;;;;;;3.95;0.90;;;;;;;;;;5322423;28;20061;-71
2022/07/10 10:08:32;;;;;;;3.78;0.70;;;;;;;;;;5322855;28;20098;-71
2022/07/10 10:11:04;;;;;;;6.18;0.70;;;;;;;;;;5323276;28;20019;-72
2022/07/10 10:13:35;;;;;;;5.22;1.15;;;;;;;;;;5322187;28;20069;-71
2022/07/10 10:16:08;;;;;;;7.70;1.92;;;;;;;;;;5322906;28;20464;-71
2022/07/10 10:20:36;;;;;;;5.18;1.40;;;;;;;;;;5322893;28;20031;-71
2022/07/10 10:21:32;;;;;;;3.38;0.65;;;;;;;;;;5322116;28;20036;-71
2022/07/10 10:24:03;;;;;;;4.95;0.70;;;;;;;;;;5323154;28;20352;-71
2022/07/10 10:26:34;;;;;;;4.90;0.60;;;;;;;;;;5322926;28;20034;-71
2022/07/10 10:29:06;;;;;;;4.70;0.60;;;;;;;;;;5322654;28;20069;-71
2022/07/10 10:31:38;;;;;;;4.25;0.60;;;;;;;;;;5323101;28;20381;-71
2022/07/10 10:34:09;;;;;;;4.50;0.95;;;;;;;;;;5325995;28;20019;-71
2022/07/10 10:36:44;;;;;;;5.75;0.60;;;;;;;;;;5327137;27;20092;-71
2022/07/10 10:39:19;;;;;;;3.80;0.50;;;;;;;;;;5326861;28;20049;-71
2022/07/10 10:41:50;;;;;;;5.30;1.00;;;;;;;;;;5326564;28;20077;-71
2022/07/10 10:44:22;;;;;;;3.30;0.70;;;;;;;;;;5326810;28;20028;-72
2022/07/10 10:47:02;;;;;;;4.10;0.60;;;;;;;;;;5327175;28;20016;-71
2022/07/10 10:49:52;;;;;;;2.88;0.73;;;;;;;;;;5325987;28;20072;-71
2022/07/10 10:52:24;;;;;;;3.88;0.80;;;;;;;;;;5326636;27;20020;-71
2022/07/10 10:55:04;;;;;;;3.53;0.50;;;;;;;;;;5327196;28;20072;-71
2022/07/10 10:57:39;;;;;;;5.57;1.73;;;;;;;;;;5326618;28;20100;-71
2022/07/10 11:00:12;;;;;;;2.60;0.57;;;;;;;;;;5326547;28;20019;-72
2022/07/10 11:02:43;;;;;;;3.20;0.50;;;;;;;;;;5325638;28;20455;-71
2022/07/10 11:05:17;;;;;;;4.63;0.45;;;;;;;;;;5326390;28;20019;-71
2022/07/10 11:07:56;;;;;;;9.75;0.45;;;;;;;;;;5326359;28;20434;-71
2022/07/10 11:10:31;;;;;;;3.13;0.50;;;;;;;;;;5325202;28;20494;-71
2022/07/10 11:13:03;;;;;;;4.60;0.45;;;;;;;;;;5326406;28;20320;-71
2022/07/10 11:15:36;;;;;;;4.72;0.50;;;;;;;;;;5326316;28;20023;-71
2022/07/10 11:18:11;;;;;;;5.93;0.60;;;;;;;;;;5325128;28;20036;-71
2022/07/10 11:20:50;;;;;;;3.67;0.40;;;;;;;;;;5325850;28;20044;-71
2022/07/10 11:23:39;;;;;;;3.92;0.50;;;;;;;;;;5324896;28;20120;-71
2022/07/10 11:26:16;;;;;;;6.90;0.40;;;;;;;;;;5325827;28;20027;-71
2022/07/10 11:28:54;;;;;;;4.60;0.50;;;;;;;;;;5325879;28;20028;-72
2022/07/10 11:31:27;;;;;;;2.67;0.30;;;;;;;;;;5325267;28;20348;-71
2022/07/10 11:33:58;;;;;;;3.17;0.32;;;;;;;;;;5325743;28;20037;-72
2022/07/10 11:36:31;;;;;;;2.00;0.30;;;;;;;;;;5325313;28;20016;-72
2022/07/10 11:39:04;;;;;;;3.15;0.30;;;;;;;;;;5324708;28;20019;-72
2022/07/10 11:41:45;;;;;;;2.45;0.40;;;;;;;;;;5325501;28;20031;-72
2022/07/10 11:44:17;;;;;;;2.35;0.30;;;;;;;;;;5323900;28;20027;-72
2022/07/10 11:46:49;;;;;;;3.55;0.38;;;;;;;;;;5325621;28;20061;-71
2022/07/10 11:49:21;;;;;;;2.83;0.35;;;;;;;;;;5324928;28;20080;-72
2022/07/10 11:51:53;;;;;;;3.53;0.40;;;;;;;;;;5325082;28;20377;-71
2022/07/10 11:54:24;;;;;;;1.63;0.30;;;;;;;;;;5324905;28;20095;-72
2022/07/10 11:56:56;;;;;;;3.40;0.50;;;;;;;;;;5325708;28;20098;-71
2022/07/10 11:59:28;;;;;;;2.50;0.30;;;;;;;;;;5324330;27;20020;-71
2022/07/10 12:01:59;;;;;;;5.35;0.40;;;;;;;;;;5325282;28;20034;-71
2022/07/10 12:04:31;;;;;;;4.30;0.30;;;;;;;;;;5325015;28;20025;-72
2022/07/10 12:07:02;;;;;;;1.63;0.30;;;;;;;;;;5324235;28;20262;-71
2022/07/10 12:09:36;;;;;;;1.70;0.20;;;;;;;;;;5325022;28;20050;-71
2022/07/10 12:12:08;;;;;;;1.98;0.28;;;;;;;;;;5325089;28;20027;-71
2022/07/10 12:14:40;;;;;;;1.42;0.30;;;;;;;;;;5324023;28;20079;-71
2022/07/10 12:17:12;;;;;;;2.77;0.30;;;;;;;;;;5324822;28;20045;-71
2022/07/10 12:19:43;;;;;;;3.22;0.30;;;;;;;;;;5323718;28;20301;-71
2022/07/10 12:22:14;;;;;;;2.95;0.40;;;;;;;;;;5324545;28;20381;-72
2022/07/10 12:24:46;;;;;;;3.85;0.32;;;;;;;;;;5324409;28;20378;-72
2022/07/10 12:27:37;;;;;;;1.52;0.30;;;;;;;;;;5323329;28;20064;-72
2022/07/10 12:30:09;;;;;;;3.30;0.40;;;;;;;;;;5323589;28;20407;-71
2022/07/10 12:32:40;;;;;;;2.90;0.40;;;;;;;;;;5324344;28;20079;-71
2022/07/10 12:35:14;;;;;;;2.93;0.30;;;;;;;;;;5323483;28;20071;-72
2022/07/10 12:37:49;;;;;;;2.55;0.40;;;;;;;;;;5323963;28;20273;-71
2022/07/10 12:40:32;;;;;;;3.20;0.40;;;;;;;;;;5323668;28;20050;-71
2022/07/10 12:43:05;;;;;;;3.17;0.30;;;;;;;;;;5324044;28;20458;-71
2022/07/10 12:45:36;;;;;;;1.73;0.30;;;;;;;;;;5324129;28;20069;-70
2022/07/10 12:48:20;;;;;;;2.28;0.30;;;;;;;;;;5323440;28;20020;-70
2022/07/10 12:50:52;;;;;;;4.07;0.80;;;;;;;;;;5324658;28;20024;-70
2022/07/10 12:53:23;;;;;;;1.90;0.30;;;;;;;;;;5323821;28;20016;-70
2022/07/10 12:55:55;;;;;;;1.00;0.22;;;;;;;;;;5323612;28;20264;-72
2022/07/10 12:58:26;;;;;;;1.75;0.20;;;;;;;;;;5323851;28;20046;-71
2022/07/10 13:00:58;;;;;;;1.80;0.20;;;;;;;;;;5324219;28;20059;-71
2022/07/10 13:03:29;;;;;;;1.93;0.20;;;;;;;;;;5322718;28;20057;-71
2022/07/10 13:06:01;;;;;;;2.58;0.35;;;;;;;;;;5323894;27;20751;-71
2022/07/10 13:08:43;;;;;;;2.50;0.30;;;;;;;;;;5323604;28;20027;-70
2022/07/10 13:11:15;;;;;;;1.40;0.20;;;;;;;;;;5323984;28;20081;-70
2022/07/10 13:13:46;;;;;;;1.52;0.20;;;;;;;;;;5323602;28;20031;-70
2022/07/10 13:16:17;;;;;;;5.10;0.28;;;;;;;;;;5322746;28;20019;-70
2022/07/10 13:18:48;;;;;;;4.20;0.30;;;;;;;;;;5324102;28;20487;-70
2022/07/10 13:21:19;;;;;;;3.53;0.20;;;;;;;;;;5323163;28;20308;-71
2022/07/10 13:23:50;;;;;;;2.63;0.20;;;;;;;;;;5323140;28;20015;-70
2022/07/10 13:26:22;;;;;;;4.07;0.30;;;;;;;;;;5323049;28;20266;-70
2022/07/10 13:28:53;;;;;;;2.03;0.30;;;;;;;;;;5324050;28;20760;-72
2022/07/10 13:31:24;;;;;;;3.07;0.20;;;;;;;;;;5322457;28;20501;-71
2022/07/10 13:33:56;;;;;;;1.52;0.30;;;;;;;;;;5323806;28;20286;-71
2022/07/10 13:36:27;;;;;;;1.65;0.30;;;;;;;;;;5323109;28;20019;-71
2022/07/10 13:38:59;;;;;;;1.42;0.20;;;;;;;;;;5323066;28;20016;-70
2022/07/10 13:41:30;;;;;;;2.58;0.40;;;;;;;;;;5323466;28;20081;-71
2022/07/10 13:44:01;;;;;;;2.20;0.60;;;;;;;;;;5322545;28;20019;-72
2022/07/10 13:46:32;;;;;;;2.53;0.30;;;;;;;;;;5323543;28;20632;-71
2022/07/10 13:49:04;;;;;;;1.80;0.22;;;;;;;;;;5323207;28;20039;-71
2022/07/10 13:51:35;;;;;;;1.70;0.30;;;;;;;;;;5322686;28;20042;-71
2022/07/10 13:54:06;;;;;;;2.20;0.30;;;;;;;;;;5323564;28;20149;-71
2022/07/10 13:56:37;;;;;;;1.47;0.30;;;;;;;;;;5323301;28;20262;-71
2022/07/10 13:59:08;;;;;;;2.28;0.30;;;;;;;;;;5322413;28;20261;-71
2022/07/10 14:01:40;;;;;;;6.22;0.73;;;;;;;;;;5322864;28;20035;-71
2022/07/10 14:04:11;;;;;;;4.90;0.30;;;;;;;;;;5323244;28;20051;-71
2022/07/10 14:06:42;;;;;;;2.70;0.28;;;;;;;;;;5322249;28;20276;-71
2022/07/10 14:09:14;;;;;;;1.58;0.20;;;;;;;;;;5327472;28;20030;-71
2022/07/10 14:11:45;;;;;;;1.60;0.20;;;;;;;;;;5327414;28;20015;-71
2022/07/10 14:14:16;;;;;;;2.92;0.20;;;;;;;;;;5326711;28;20016;-71
2022/07/10 14:16:49;;;;;;;3.05;0.28;;;;;;;;;;5327547;28;20031;-71
2022/07/10 14:19:20;;;;;;;2.90;0.40;;;;;;;;;;5326068;28;20012;-72
2022/07/10 14:21:51;;;;;;;1.47;0.20;;;;;;;;;;5327418;28;20062;-71
2022/07/10 14:24:22;;;;;;;5.28;0.82;;;;;;;;;;5326279;28;20277;-70
2022/07/10 14:26:54;;;;;;;1.80;0.30;;;;;;;;;;5326999;28;20107;-71
2022/07/10 14:29:25;;;;;;;2.03;0.30;;;;;;;;;;5326651;28;20042;-72
2022/07/10 14:31:57;;;;;;;3.08;0.45;;;;;;;;;;5327426;28;20794;-71
2022/07/10 14:34:29;;;;;;;2.55;0.63;;;;;;;;;;5324178;28;20064;-69
2022/07/10 14:37:00;;;;;;;3.63;0.30;;;;;;;;;;5325309;28;20023;-70
2022/07/10 14:39:32;;;;;;;2.75;0.30;;;;;;;;;;5325501;28;20459;-70
2022/07/10 14:42:04;;;;;;;2.08;0.30;;;;;;;;;;5324623;28;20032;-70
2022/07/10 14:44:36;;;;;;;2.63;0.30;;;;;;;;;;5325165;28;20007;-70
2022/07/10 14:47:07;;;;;;;3.25;0.30;;;;;;;;;;5324762;28;20528;-70
2022/07/10 14:49:38;;;;;;;3.10;0.50;;;;;;;;;;5324970;28;20016;-70
2022/07/10 14:52:09;;;;;;;2.38;0.30;;;;;;;;;;5325731;28;20015;-70
2022/07/10 14:54:40;;;;;;;2.10;0.30;;;;;;;;;;5325735;28;20019;-70
2022/07/10 14:57:13;;;;;;;3.53;0.35;;;;;;;;;;5326568;28;20479;-69
2022/07/10 14:59:44;;;;;;;3.45;0.40;;;;;;;;;;5322265;28;20012;-69
2022/07/10 15:02:15;;;;;;;2.03;0.30;;;;;;;;;;5325054;28;20486;-69
2022/07/10 15:04:46;;;;;;;2.30;0.30;;;;;;;;;;5325770;28;20266;-69
2022/07/10 15:07:18;;;;;;;3.72;0.40;;;;;;;;;;5326243;28;20023;-72
2022/07/10 15:09:49;;;;;;;4.18;0.30;;;;;;;;;;5325724;28;20020;-70
2022/07/10 15:12:20;;;;;;;6.47;3.33;;;;;;;;;;5325859;28;20051;-70
2022/07/10 15:14:51;;;;;;;6.68;5.03;;;;;;;;;;5326375;28;20019;-69
2022/07/10 15:17:22;;;;;;;2.50;0.40;;;;;;;;;;5324988;28;20023;-69
2022/07/10 15:19:54;;;;;;;3.65;0.40;;;;;;;;;;5324950;28;20499;-69
2022/07/10 15:22:25;;;;;;;3.35;0.40;;;;;;;;;;5324885;28;20479;-69
2022/07/10 15:24:56;;;;;;;2.78;0.32;;;;;;;;;;5326178;28;20015;-69